createdAt,value
2018-06-03T00:01:42.697Z,67.08
2018-06-03T00:04:11.527Z,66.78
2018-06-03T00:06:40.312Z,67.01
2018-06-03T00:09:09.090Z,66.96
2018-06-03T00:11:38.094Z,68.01
2018-06-03T00:14:06.883Z,67.29
2018-06-03T00:16:35.672Z,67.42
2018-06-03T00:19:04.498Z,67.56
2018-06-03T00:21:49.470Z,67.92
2018-06-03T00:24:18.271Z,67.75
2018-06-03T00:26:47.485Z,67.84
2018-06-03T00:29:16.276Z,67.66
2018-06-03T00:31:45.132Z,67.91
2018-06-03T00:34:13.954Z,68.19
2018-06-03T00:36:46.770Z,67.88
2018-06-03T00:39:15.625Z,67.62
2018-06-03T00:41:44.444Z,67.70
2018-06-03T00:44:13.258Z,67.67
2018-06-03T00:46:42.067Z,67.66
2018-06-03T00:49:10.970Z,67.66
2018-06-03T00:51:39.821Z,67.78
2018-06-03T00:54:08.625Z,67.80
2018-06-03T00:56:48.505Z,68.04
2018-06-03T00:59:17.366Z,68.00
2018-06-03T01:01:46.250Z,68.42
2018-06-03T01:04:15.062Z,68.03
2018-06-03T01:06:43.826Z,68.82
2018-06-03T01:09:12.690Z,68.55
2018-06-03T01:11:41.475Z,68.82
2018-06-03T01:14:11.043Z,68.44
2018-06-03T01:16:39.893Z,68.01
2018-06-03T01:19:08.690Z,68.43
2018-06-03T01:21:37.474Z,68.29
2018-06-03T01:24:06.263Z,67.89
2018-06-03T01:26:35.106Z,68.79
2018-06-03T01:29:03.886Z,68.20
2018-06-03T01:31:32.722Z,68.14
2018-06-03T01:34:01.533Z,68.64
2018-06-03T01:36:30.411Z,68.80
2018-06-03T01:38:59.193Z,69.10
2018-06-03T01:41:28.002Z,69.12
2018-06-03T01:43:56.795Z,68.71
2018-06-03T01:46:25.590Z,68.82
2018-06-03T01:48:54.378Z,68.25
2018-06-03T01:51:23.187Z,68.30
2018-06-03T01:53:52.014Z,68.33
2018-06-03T01:56:20.819Z,68.92
2018-06-03T01:58:49.600Z,68.17
2018-06-03T02:01:18.394Z,68.61
2018-06-03T02:03:47.149Z,68.65
2018-06-03T02:06:15.939Z,68.77
2018-06-03T02:08:44.784Z,69.04
2018-06-03T02:11:13.604Z,68.32
2018-06-03T02:13:42.373Z,68.57
2018-06-03T02:16:11.205Z,68.93
2018-06-03T02:18:39.960Z,68.64
2018-06-03T02:21:08.767Z,69.20
2018-06-03T02:23:37.538Z,68.69
2018-06-03T02:26:06.326Z,68.93
2018-06-03T02:28:35.139Z,69.09
2018-06-03T02:31:03.944Z,69.36
2018-06-03T02:33:32.754Z,69.01
2018-06-03T02:36:01.558Z,69.67
2018-06-03T02:38:30.530Z,69.87
2018-06-03T02:40:59.344Z,69.95
2018-06-03T02:43:28.125Z,70.09
2018-06-03T02:45:56.919Z,69.36
2018-06-03T02:48:25.771Z,69.21
2018-06-03T02:50:54.654Z,69.96
2018-06-03T02:53:23.846Z,69.82
2018-06-03T02:55:52.741Z,69.63
2018-06-03T02:58:21.565Z,70.31
2018-06-03T03:00:50.384Z,69.75
2018-06-03T03:03:19.151Z,69.29
2018-06-03T03:05:47.979Z,69.42
2018-06-03T03:08:16.831Z,69.80
2018-06-03T03:10:45.645Z,69.74
2018-06-03T03:13:14.454Z,69.42
2018-06-03T03:15:43.282Z,69.95
2018-06-03T03:18:12.143Z,68.87
2018-06-03T03:20:40.975Z,69.44
2018-06-03T03:23:09.811Z,69.04
2018-06-03T03:25:38.591Z,68.89
2018-06-03T03:28:07.390Z,68.66
2018-06-03T03:30:36.613Z,69.18
2018-06-03T03:33:05.650Z,68.56
2018-06-03T03:35:34.466Z,68.54
2018-06-03T03:38:03.326Z,68.46
2018-06-03T03:40:38.692Z,68.03
2018-06-03T03:43:07.529Z,67.62
2018-06-03T03:45:36.336Z,67.69
2018-06-03T03:48:05.186Z,68.16
2018-06-03T03:50:34.045Z,67.73
2018-06-03T03:53:02.817Z,67.45
2018-06-03T03:55:31.628Z,67.39
2018-06-03T03:58:00.448Z,67.27
2018-06-03T04:00:29.289Z,67.25
2018-06-03T04:02:58.120Z,66.36
2018-06-03T04:05:26.976Z,66.51
2018-06-03T04:07:55.773Z,65.78
2018-06-03T04:10:24.575Z,65.05
2018-06-03T04:12:53.397Z,65.29
2018-06-03T04:15:22.274Z,65.07
2018-06-03T04:17:51.121Z,65.53
2018-06-03T04:20:20.104Z,65.39
2018-06-03T04:22:48.882Z,64.05
2018-06-03T04:25:17.695Z,64.09
2018-06-03T04:27:46.474Z,63.73
2018-06-03T04:30:15.294Z,62.85
2018-06-03T04:32:44.075Z,63.75
2018-06-03T04:35:12.890Z,63.41
2018-06-03T04:37:41.664Z,62.31
2018-06-03T04:40:10.474Z,62.40
2018-06-03T04:42:39.426Z,62.12
2018-06-03T04:45:08.193Z,61.26
2018-06-03T04:47:36.986Z,59.79
2018-06-03T04:50:05.978Z,59.31
2018-06-03T04:52:34.847Z,57.09
2018-06-03T04:55:03.600Z,54.51
2018-06-03T04:57:32.590Z,52.50
2018-06-03T05:00:01.347Z,51.17
2018-06-03T05:02:30.127Z,49.42
2018-06-03T05:04:59.065Z,49.10
2018-06-03T05:07:27.900Z,47.37
2018-06-03T05:09:56.748Z,46.43
2018-06-03T05:12:25.548Z,46.94
2018-06-03T05:14:54.436Z,46.21
2018-06-03T05:17:23.351Z,45.47
2018-06-03T05:19:52.244Z,45.80
2018-06-03T05:22:21.067Z,45.60
2018-06-03T05:24:49.893Z,45.24
2018-06-03T05:27:18.662Z,44.83
2018-06-03T05:29:47.462Z,45.64
2018-06-03T05:32:16.262Z,45.68
2018-06-03T05:34:45.152Z,44.94
2018-06-03T05:37:13.985Z,45.40
2018-06-03T05:39:42.824Z,45.06
2018-06-03T05:42:11.671Z,45.27
2018-06-03T05:44:40.586Z,44.54
2018-06-03T05:47:09.446Z,45.31
2018-06-03T05:49:38.228Z,45.55
2018-06-03T05:52:07.142Z,44.92
2018-06-03T05:54:35.949Z,46.29
2018-06-03T05:57:04.751Z,46.62
2018-06-03T05:59:33.583Z,47.88
2018-06-03T06:02:02.434Z,48.17
2018-06-03T06:04:31.267Z,49.40
2018-06-03T06:07:00.122Z,49.34
2018-06-03T06:09:28.940Z,49.96
2018-06-03T06:11:57.720Z,48.58
2018-06-03T06:14:26.525Z,49.46
2018-06-03T06:16:55.370Z,49.93
2018-06-03T06:19:24.178Z,50.00
2018-06-03T06:21:53.003Z,50.25
2018-06-03T06:24:21.802Z,49.81
2018-06-03T06:26:57.080Z,50.73
2018-06-03T06:29:25.896Z,50.25
2018-06-03T06:31:55.024Z,49.63
2018-06-03T06:34:23.912Z,49.60
2018-06-03T06:36:52.715Z,50.51
2018-06-03T06:39:21.586Z,50.80
2018-06-03T06:41:50.687Z,50.14
2018-06-03T06:44:19.545Z,52.11
2018-06-03T06:46:48.368Z,51.72
2018-06-03T06:49:17.328Z,51.72
2018-06-03T06:51:46.159Z,52.10
2018-06-03T06:54:14.927Z,52.27
2018-06-03T06:56:43.731Z,51.63
2018-06-03T06:59:12.526Z,51.81
2018-06-03T07:01:41.340Z,51.92
2018-06-03T07:04:10.118Z,50.64
2018-06-03T07:06:38.988Z,51.13
2018-06-03T07:09:08.157Z,52.28
2018-06-03T07:11:37.029Z,50.91
2018-06-03T07:14:05.835Z,50.69
2018-06-03T07:16:34.727Z,51.10
2018-06-03T07:19:03.567Z,50.47
2018-06-03T07:21:32.363Z,51.72
2018-06-03T07:24:01.157Z,51.29
2018-06-03T07:26:29.892Z,50.34
2018-06-03T07:28:58.682Z,51.44
2018-06-03T07:31:27.468Z,50.82
2018-06-03T07:33:56.299Z,50.69
2018-06-03T07:36:25.089Z,50.48
2018-06-03T07:38:54.063Z,49.36
2018-06-03T07:41:22.897Z,48.92
2018-06-03T07:43:51.720Z,48.97
2018-06-03T07:46:20.846Z,50.07
2018-06-03T07:48:49.632Z,48.24
2018-06-03T07:51:18.465Z,47.93
2018-06-03T07:53:47.355Z,47.88
2018-06-03T07:56:16.217Z,46.33
2018-06-03T07:58:45.041Z,46.57
2018-06-03T08:01:13.796Z,46.63
2018-06-03T08:03:42.563Z,46.41
2018-06-03T08:06:11.346Z,45.93
2018-06-03T08:08:40.187Z,45.09
2018-06-03T08:11:09.016Z,45.68
2018-06-03T08:13:37.886Z,46.54
2018-06-03T08:16:06.709Z,46.30
2018-06-03T08:18:35.469Z,44.93
2018-06-03T08:21:04.299Z,45.24
2018-06-03T08:23:33.128Z,45.21
2018-06-03T08:26:01.908Z,45.60
2018-06-03T08:28:30.706Z,44.87
2018-06-03T08:30:59.827Z,46.08
2018-06-03T08:33:28.613Z,45.52
2018-06-03T08:35:57.441Z,45.97
2018-06-03T08:38:26.412Z,45.15
2018-06-03T08:40:55.192Z,46.17
2018-06-03T08:43:23.969Z,45.59
2018-06-03T08:45:52.739Z,46.20
2018-06-03T08:48:21.481Z,46.42
2018-06-03T08:50:51.063Z,46.13
2018-06-03T08:53:19.890Z,46.39
2018-06-03T08:55:48.669Z,46.58
2018-06-03T08:58:17.516Z,46.52
2018-06-03T09:00:46.312Z,45.34
2018-06-03T09:03:15.105Z,44.70
2018-06-03T09:05:44.249Z,45.46
2018-06-03T09:08:13.066Z,45.74
2018-06-03T09:10:41.848Z,46.06
2018-06-03T09:13:10.750Z,45.02
2018-06-03T09:15:39.667Z,45.37
2018-06-03T09:18:08.508Z,44.91
2018-06-03T09:20:37.299Z,44.73
2018-06-03T09:23:06.544Z,43.13
2018-06-03T09:25:35.335Z,41.20
2018-06-03T09:28:04.133Z,41.16
2018-06-03T09:30:32.949Z,41.30
2018-06-03T09:33:01.738Z,42.65
2018-06-03T09:35:30.575Z,41.45
2018-06-03T09:37:59.414Z,41.17
2018-06-03T09:40:28.245Z,40.58
2018-06-03T09:42:57.080Z,40.52
2018-06-03T09:45:26.204Z,40.18
2018-06-03T09:47:55.001Z,40.10
2018-06-03T09:50:23.866Z,39.41
2018-06-03T09:52:52.727Z,38.83
2018-06-03T09:55:21.555Z,39.47
2018-06-03T09:57:50.321Z,40.22
2018-06-03T10:00:24.021Z,40.39
2018-06-03T10:02:53.072Z,38.73
2018-06-03T10:05:21.838Z,39.88
2018-06-03T10:07:50.655Z,39.72
2018-06-03T10:10:19.491Z,39.03
2018-06-03T10:12:48.412Z,39.07
2018-06-03T10:15:17.219Z,39.74
2018-06-03T10:17:46.028Z,39.26
2018-06-03T10:20:14.891Z,39.64
2018-06-03T10:22:43.765Z,37.66
2018-06-03T10:25:12.586Z,37.12
2018-06-03T10:27:41.412Z,37.00
2018-06-03T10:30:10.175Z,35.94
2018-06-03T10:32:38.994Z,35.98
2018-06-03T10:35:07.746Z,33.29
2018-06-03T10:37:36.562Z,33.88
2018-06-03T10:40:05.390Z,33.81
2018-06-03T10:42:34.265Z,34.18
2018-06-03T10:45:03.096Z,32.56
2018-06-03T10:47:31.890Z,34.00
2018-06-03T10:50:00.610Z,35.42
2018-06-03T10:52:29.392Z,34.63
2018-06-03T10:54:58.671Z,34.83
2018-06-03T10:57:27.514Z,36.58
2018-06-03T10:59:56.544Z,39.13
2018-06-03T11:02:27.275Z,39.44
2018-06-03T11:04:56.425Z,40.61
2018-06-03T11:07:31.391Z,38.67
2018-06-03T11:10:00.208Z,37.34
2018-06-03T11:12:29.000Z,34.50
2018-06-03T11:14:57.746Z,32.89
2018-06-03T11:17:26.559Z,33.21
2018-06-03T11:19:55.331Z,33.24
2018-06-03T11:22:32.112Z,35.38
2018-06-03T11:25:00.933Z,37.22
2018-06-03T11:27:31.503Z,38.51
2018-06-03T11:30:00.423Z,38.82
2018-06-03T11:32:30.156Z,38.36
2018-06-03T11:34:59.171Z,38.98
2018-06-03T11:37:42.671Z,37.97
2018-06-03T11:40:11.525Z,38.22
2018-06-03T11:42:40.477Z,37.78
2018-06-03T11:45:09.211Z,38.40
2018-06-03T11:47:38.072Z,39.52
2018-06-03T11:50:06.929Z,40.59
2018-06-03T11:52:35.794Z,40.48
2018-06-03T11:55:05.751Z,39.15
2018-06-03T11:57:56.750Z,40.31
2018-06-03T12:00:25.611Z,41.29
2018-06-03T12:02:54.440Z,39.82
2018-06-03T12:05:23.192Z,39.27
2018-06-03T12:07:52.035Z,38.63
2018-06-03T12:10:20.801Z,38.76
2018-06-03T12:12:49.724Z,38.00
2018-06-03T12:15:18.475Z,37.92
2018-06-03T12:17:47.338Z,37.09
2018-06-03T12:20:16.176Z,37.86
2018-06-03T12:22:45.028Z,37.35
2018-06-03T12:25:13.857Z,38.08
2018-06-03T12:27:42.628Z,37.99
2018-06-03T12:30:11.500Z,36.52
2018-06-03T12:32:40.309Z,36.56
2018-06-03T12:35:09.042Z,35.48
2018-06-03T12:37:37.991Z,35.33
2018-06-03T12:40:06.748Z,34.35
2018-06-03T12:42:35.538Z,33.35
2018-06-03T12:45:04.315Z,31.67
2018-06-03T12:47:35.892Z,34.30
2018-06-03T12:50:04.814Z,37.65
2018-06-03T12:52:33.620Z,38.69
2018-06-03T12:55:02.495Z,39.25
2018-06-03T12:57:31.309Z,40.93
2018-06-03T13:00:00.564Z,40.38
2018-06-03T13:02:29.357Z,40.83
2018-06-03T13:04:58.229Z,41.42
2018-06-03T13:07:27.047Z,41.00
2018-06-03T13:09:55.973Z,40.08
2018-06-03T13:12:25.575Z,39.45
2018-06-03T13:14:54.441Z,40.75
2018-06-03T13:17:23.314Z,40.59
2018-06-03T13:19:52.261Z,39.52
2018-06-03T13:22:21.151Z,38.61
2018-06-03T13:24:49.924Z,36.78
2018-06-03T13:27:19.403Z,34.70
2018-06-03T13:29:48.331Z,33.97
2018-06-03T13:32:17.111Z,33.37
2018-06-03T13:34:45.891Z,37.14
2018-06-03T13:37:14.673Z,40.53
2018-06-03T13:39:43.499Z,40.62
2018-06-03T13:42:12.266Z,40.79
2018-06-03T13:44:41.989Z,41.45
2018-06-03T13:47:10.851Z,39.33
2018-06-03T13:49:39.652Z,40.12
2018-06-03T13:52:08.463Z,40.24
2018-06-03T13:54:37.246Z,39.83
2018-06-03T13:57:06.787Z,40.89
2018-06-03T13:59:35.605Z,38.55
2018-06-03T14:02:04.436Z,38.77
2018-06-03T14:04:33.211Z,39.37
2018-06-03T14:07:02.035Z,39.65
2018-06-03T14:09:30.807Z,41.68
2018-06-03T14:11:59.619Z,43.52
2018-06-03T14:14:28.396Z,44.64
2018-06-03T14:16:57.216Z,46.65
2018-06-03T14:19:26.287Z,48.11
2018-06-03T14:21:55.283Z,48.30
2018-06-03T14:24:24.035Z,49.34
2018-06-03T14:26:52.913Z,50.78
2018-06-03T14:29:28.162Z,51.93
2018-06-03T14:31:56.935Z,53.90
2018-06-03T14:34:25.875Z,54.62
2018-06-03T14:36:54.675Z,54.44
2018-06-03T14:39:23.522Z,53.40
2018-06-03T14:41:52.308Z,54.00
2018-06-03T14:44:21.086Z,54.11
2018-06-03T14:46:50.573Z,53.75
2018-06-03T14:49:19.389Z,53.62
2018-06-03T14:51:48.143Z,53.02
2018-06-03T14:54:16.929Z,53.20
2018-06-03T14:56:45.684Z,51.82
2018-06-03T14:59:16.307Z,51.25
2018-06-03T15:01:45.097Z,51.58
2018-06-03T15:04:13.931Z,53.77
2018-06-03T15:06:42.759Z,53.96
2018-06-03T15:09:11.961Z,52.63
2018-06-03T15:11:40.791Z,53.12
2018-06-03T15:14:09.602Z,53.14
2018-06-03T15:16:38.464Z,51.34
2018-06-03T15:19:08.235Z,49.65
2018-06-03T15:21:37.044Z,50.20
2018-06-03T15:24:06.076Z,50.42
2018-06-03T15:26:34.878Z,49.42
2018-06-03T15:29:03.653Z,49.64
2018-06-03T15:31:32.503Z,47.02
2018-06-03T15:34:01.267Z,48.67
2018-06-03T15:36:30.237Z,49.79
2018-06-03T15:38:59.116Z,50.58
2018-06-03T15:41:28.005Z,50.15
2018-06-03T15:43:56.896Z,51.15
2018-06-03T15:46:26.570Z,51.35
2018-06-03T15:48:55.456Z,49.35
2018-06-03T15:51:24.222Z,49.90
2018-06-03T15:53:53.007Z,50.01
2018-06-03T15:56:21.804Z,50.63
2018-06-03T15:58:50.664Z,50.33
2018-06-03T16:01:19.436Z,49.91
2018-06-03T16:03:49.287Z,49.96
2018-06-03T16:06:18.085Z,50.04
2018-06-03T16:08:46.852Z,50.51
2018-06-03T16:11:15.733Z,49.52
2018-06-03T16:13:44.567Z,49.79
2018-06-03T16:16:13.392Z,48.07
2018-06-03T16:18:42.382Z,48.88
2018-06-03T16:21:11.167Z,48.44
2018-06-03T16:23:40.083Z,49.61
2018-06-03T16:26:08.935Z,49.96
2018-06-03T16:28:37.943Z,50.15
2018-06-03T16:31:06.816Z,50.28
2018-06-03T16:33:35.608Z,50.62
2018-06-03T16:36:04.404Z,50.67
2018-06-03T16:38:38.057Z,52.03
2018-06-03T16:41:07.381Z,52.67
2018-06-03T16:43:36.859Z,52.64
2018-06-03T16:46:06.039Z,52.83
2018-06-03T16:48:34.906Z,52.01
2018-06-03T16:51:03.863Z,52.00
2018-06-03T16:53:32.712Z,52.24
2018-06-03T16:56:01.561Z,52.62
2018-06-03T16:58:30.875Z,53.71
2018-06-03T17:00:59.707Z,53.42
2018-06-03T17:03:28.535Z,54.51
2018-06-03T17:06:00.105Z,53.90
2018-06-03T17:08:29.119Z,54.75
2018-06-03T17:10:57.986Z,54.34
2018-06-03T17:13:26.756Z,55.00
2018-06-03T17:15:55.538Z,55.16
2018-06-03T17:18:25.078Z,55.38
2018-06-03T17:20:54.734Z,55.64
2018-06-03T17:23:23.685Z,55.77
2018-06-03T17:25:52.477Z,55.80
2018-06-03T17:28:21.259Z,55.63
2018-06-03T17:30:50.159Z,55.32
2018-06-03T17:33:18.911Z,56.50
2018-06-03T17:35:47.703Z,56.00
2018-06-03T17:38:17.109Z,56.29
2018-06-03T17:40:47.645Z,56.07
2018-06-03T17:43:16.464Z,56.22
2018-06-03T17:45:45.224Z,56.67
2018-06-03T17:48:13.964Z,57.01
2018-06-03T17:50:42.767Z,57.22
2018-06-03T17:53:11.998Z,57.52
2018-06-03T17:55:40.808Z,56.45
2018-06-03T17:58:09.744Z,56.73
2018-06-03T18:00:38.555Z,57.48
2018-06-03T18:03:07.392Z,56.93
2018-06-03T18:05:36.190Z,54.60
2018-06-03T18:08:05.020Z,55.62
2018-06-03T18:10:33.813Z,55.07
2018-06-03T18:13:03.466Z,54.62
2018-06-03T18:15:32.304Z,53.16
2018-06-03T18:18:01.108Z,53.29
2018-06-03T18:20:30.269Z,51.49
2018-06-03T18:23:00.957Z,49.96
2018-06-03T18:25:29.743Z,49.66
2018-06-03T18:28:04.631Z,48.86
2018-06-03T18:30:33.347Z,48.31
2018-06-03T18:33:02.333Z,47.51
2018-06-03T18:35:31.227Z,46.91
2018-06-03T18:37:59.987Z,46.87
2018-06-03T18:40:28.833Z,47.06
2018-06-03T18:42:57.582Z,47.57
2018-06-03T18:45:26.413Z,46.55
2018-06-03T18:47:55.269Z,47.48
2018-06-03T18:50:24.014Z,46.34
2018-06-03T18:52:52.821Z,46.13
2018-06-03T18:55:21.597Z,46.56
2018-06-03T18:57:50.387Z,47.10
2018-06-03T19:00:19.180Z,47.09
2018-06-03T19:02:48.074Z,48.29
2018-06-03T19:05:16.807Z,49.76
2018-06-03T19:10:23.106Z,51.05
2018-06-03T19:12:51.936Z,50.75
2018-06-03T19:15:20.746Z,51.89
2018-06-03T19:17:49.579Z,51.66
2018-06-03T19:20:18.335Z,52.00
2018-06-03T19:22:47.527Z,52.46
2018-06-03T19:25:16.447Z,52.93
2018-06-03T19:27:45.258Z,53.17
2018-06-03T19:30:16.952Z,53.38
2018-06-03T19:32:45.715Z,53.00
2018-06-03T19:35:14.644Z,53.30
2018-06-03T19:37:43.479Z,53.10
2018-06-03T19:40:12.268Z,53.62
2018-06-03T19:42:40.999Z,53.57
2018-06-03T19:45:10.208Z,53.33
2018-06-03T19:47:39.017Z,54.14
2018-06-03T19:50:07.800Z,53.46
2018-06-03T19:52:36.528Z,54.17
2018-06-03T19:55:08.331Z,54.58
2018-06-03T19:57:37.139Z,54.94
2018-06-03T20:00:08.933Z,55.16
2018-06-03T20:02:41.357Z,54.93
2018-06-03T20:05:10.421Z,54.53
2018-06-03T20:07:40.945Z,54.78
2018-06-03T20:10:12.948Z,55.61
2018-06-03T20:12:41.990Z,55.48
2018-06-03T20:15:10.867Z,54.64
2018-06-03T20:17:39.714Z,54.82
2018-06-03T20:20:09.005Z,55.74
2018-06-03T20:22:39.374Z,55.76
2018-06-03T20:25:08.418Z,55.30
2018-06-03T20:27:37.422Z,56.24
2018-06-03T20:30:07.534Z,55.62
2018-06-03T20:32:36.376Z,56.08
2018-06-03T20:35:05.194Z,56.41
2018-06-03T20:37:33.976Z,55.19
2018-06-03T20:40:02.780Z,56.09
2018-06-03T20:42:31.626Z,55.69
2018-06-03T20:45:00.627Z,56.43
2018-06-03T20:47:29.391Z,56.65
2018-06-03T20:49:58.148Z,55.64
2018-06-03T20:52:26.973Z,56.60
2018-06-03T20:54:55.743Z,55.97
2018-06-03T20:57:24.560Z,56.20
2018-06-03T20:59:53.494Z,56.37
2018-06-03T21:02:22.230Z,57.61
2018-06-03T21:04:51.201Z,56.99
2018-06-03T21:07:19.970Z,57.23
2018-06-03T21:09:48.815Z,56.74
2018-06-03T21:12:18.440Z,56.83
2018-06-03T21:14:47.208Z,56.79
2018-06-03T21:17:16.179Z,57.05
2018-06-03T21:19:44.921Z,56.47
2018-06-03T21:22:14.388Z,56.77
2018-06-03T21:24:43.167Z,57.27
2018-06-03T21:27:11.934Z,56.92
2018-06-03T21:29:40.714Z,56.66
2018-06-03T21:32:09.474Z,56.73
2018-06-03T21:34:38.287Z,56.73
2018-06-03T21:37:07.110Z,55.81
2018-06-03T21:39:35.869Z,56.09
2018-06-03T21:42:04.699Z,56.41
2018-06-03T21:44:33.473Z,55.36
2018-06-03T21:47:02.263Z,55.05
2018-06-03T21:49:31.000Z,55.34
2018-06-03T21:52:00.102Z,54.77
2018-06-03T21:54:28.863Z,55.19
2018-06-03T21:56:57.643Z,54.92
2018-06-03T21:59:26.674Z,54.21
2018-06-03T22:01:55.456Z,54.05
2018-06-03T22:04:24.182Z,54.02
2018-06-03T22:06:52.923Z,53.62
2018-06-03T22:09:21.666Z,53.98
2018-06-03T22:11:50.458Z,53.78
2018-06-03T22:14:19.230Z,52.46
2018-06-03T22:16:48.055Z,53.16
2018-06-03T22:19:16.835Z,52.67
2018-06-03T22:21:45.599Z,52.56
2018-06-03T22:24:14.354Z,53.31
2018-06-03T22:26:43.119Z,52.99
2018-06-03T22:29:11.853Z,53.15
2018-06-03T22:31:40.616Z,52.99
2018-06-03T22:34:09.384Z,52.91
2018-06-03T22:36:38.090Z,52.57
2018-06-03T22:39:09.189Z,52.66
2018-06-03T22:41:37.933Z,53.73
2018-06-03T22:44:06.682Z,53.46
2018-06-03T22:46:35.453Z,53.61
2018-06-03T22:49:04.212Z,53.24
2018-06-03T22:51:32.940Z,53.39
2018-06-03T22:54:01.787Z,53.08
2018-06-03T22:56:41.521Z,52.87
2018-06-03T22:59:10.269Z,54.43
2018-06-03T23:01:39.020Z,54.01
2018-06-03T23:04:07.796Z,54.11
2018-06-03T23:06:36.586Z,53.37
2018-06-03T23:09:06.704Z,53.17
2018-06-03T23:11:35.628Z,53.34
2018-06-03T23:14:04.466Z,53.94
2018-06-03T23:16:33.183Z,53.44
2018-06-03T23:19:02.043Z,53.61
2018-06-03T23:21:31.074Z,52.94
2018-06-03T23:24:00.296Z,53.03
2018-06-03T23:26:29.051Z,53.42
2018-06-03T23:28:57.824Z,53.22
2018-06-03T23:31:26.559Z,53.19
2018-06-03T23:33:55.311Z,52.99
2018-06-03T23:36:24.255Z,52.56
2018-06-03T23:38:53.055Z,52.83
2018-06-03T23:41:21.980Z,53.06
2018-06-03T23:43:50.838Z,52.99
2018-06-03T23:46:19.573Z,52.72
2018-06-03T23:48:48.567Z,52.42
2018-06-03T23:51:17.330Z,52.60
2018-06-03T23:53:46.130Z,52.74
2018-06-03T23:56:14.882Z,52.38
2018-06-03T23:58:43.605Z,53.05
